sensor_id;sensor_type;location;lat;lon;timestamp;P1;durP1;ratioP1;P2;durP2;ratioP2
19758;SDS011;10038;42.662;23.278;2023-02-22T00:02:16;21.07;;;10.83;;
19758;SDS011;10038;42.662;23.278;2023-02-22T00:04:51;21.43;;;10.83;;
19758;SDS011;10038;42.662;23.278;2023-02-22T00:07:17;20.67;;;11.60;;
19758;SDS011;10038;42.662;23.278;2023-02-22T00:09:45;22.30;;;10.60;;
19758;SDS011;10038;42.662;23.278;2023-02-22T00:12:11;20.90;;;10.47;;
19758;SDS011;10038;42.662;23.278;2023-02-22T00:14:39;21.77;;;11.43;;
19758;SDS011;10038;42.662;23.278;2023-02-22T00:17:06;17.63;;;11.47;;
19758;SDS011;10038;42.662;23.278;2023-02-22T00:19:32;23.27;;;12.73;;
19758;SDS011;10038;42.662;23.278;2023-02-22T00:21:59;17.23;;;9.80;;
19758;SDS011;10038;42.662;23.278;2023-02-22T00:24:25;17.87;;;9.90;;
19758;SDS011;10038;42.662;23.278;2023-02-22T00:26:53;17.03;;;9.67;;
19758;SDS011;10038;42.662;23.278;2023-02-22T00:29:20;18.70;;;8.97;;
19758;SDS011;10038;42.662;23.278;2023-02-22T00:31:48;18.40;;;9.50;;
19758;SDS011;10038;42.662;23.278;2023-02-22T00:34:15;17.93;;;9.30;;
19758;SDS011;10038;42.662;23.278;2023-02-22T00:36:43;17.03;;;9.30;;
19758;SDS011;10038;42.662;23.278;2023-02-22T00:39:10;19.70;;;10.00;;
19758;SDS011;10038;42.662;23.278;2023-02-22T00:41:36;16.13;;;9.00;;
19758;SDS011;10038;42.662;23.278;2023-02-22T00:44:03;23.13;;;10.03;;
19758;SDS011;10038;42.662;23.278;2023-02-22T00:46:30;15.67;;;8.93;;
19758;SDS011;10038;42.662;23.278;2023-02-22T00:48:58;17.03;;;8.63;;
19758;SDS011;10038;42.662;23.278;2023-02-22T00:51:24;14.10;;;7.33;;
19758;SDS011;10038;42.662;23.278;2023-02-22T00:53:52;15.50;;;6.50;;
19758;SDS011;10038;42.662;23.278;2023-02-22T00:56:19;16.63;;;6.80;;
19758;SDS011;10038;42.662;23.278;2023-02-22T00:58:45;13.53;;;6.80;;
19758;SDS011;10038;42.662;23.278;2023-02-22T01:01:12;11.87;;;6.67;;
19758;SDS011;10038;42.662;23.278;2023-02-22T01:03:38;12.80;;;7.13;;
19758;SDS011;10038;42.662;23.278;2023-02-22T01:06:06;14.47;;;7.43;;
19758;SDS011;10038;42.662;23.278;2023-02-22T01:08:33;17.20;;;7.50;;
19758;SDS011;10038;42.662;23.278;2023-02-22T01:10:59;12.60;;;5.70;;
19758;SDS011;10038;42.662;23.278;2023-02-22T01:13:26;7.90;;;3.93;;
19758;SDS011;10038;42.662;23.278;2023-02-22T01:15:52;8.33;;;4.10;;
19758;SDS011;10038;42.662;23.278;2023-02-22T01:18:20;6.00;;;2.77;;
19758;SDS011;10038;42.662;23.278;2023-02-22T01:20:47;4.87;;;2.97;;
19758;SDS011;10038;42.662;23.278;2023-02-22T01:23:15;5.23;;;2.57;;
19758;SDS011;10038;42.662;23.278;2023-02-22T01:25:42;6.57;;;2.97;;
19758;SDS011;10038;42.662;23.278;2023-02-22T01:28:09;8.53;;;3.00;;
19758;SDS011;10038;42.662;23.278;2023-02-22T01:30:37;7.47;;;3.50;;
19758;SDS011;10038;42.662;23.278;2023-02-22T01:33:04;6.20;;;3.00;;
19758;SDS011;10038;42.662;23.278;2023-02-22T01:35:32;6.13;;;4.20;;
19758;SDS011;10038;42.662;23.278;2023-02-22T01:37:58;8.60;;;4.57;;
19758;SDS011;10038;42.662;23.278;2023-02-22T01:40:27;6.07;;;3.53;;
19758;SDS011;10038;42.662;23.278;2023-02-22T01:42:56;10.30;;;4.93;;
19758;SDS011;10038;42.662;23.278;2023-02-22T01:48:10;10.13;;;4.33;;
19758;SDS011;10038;42.662;23.278;2023-02-22T01:50:38;7.43;;;4.30;;
19758;SDS011;10038;42.662;23.278;2023-02-22T01:53:05;10.20;;;3.87;;
19758;SDS011;10038;42.662;23.278;2023-02-22T01:55:34;10.10;;;5.33;;
19758;SDS011;10038;42.662;23.278;2023-02-22T01:58:01;9.23;;;3.77;;
19758;SDS011;10038;42.662;23.278;2023-02-22T02:00:27;4.73;;;3.93;;
19758;SDS011;10038;42.662;23.278;2023-02-22T02:02:55;6.93;;;3.50;;
19758;SDS011;10038;42.662;23.278;2023-02-22T02:05:23;8.43;;;4.10;;
19758;SDS011;10038;42.662;23.278;2023-02-22T02:07:49;5.70;;;3.77;;
19758;SDS011;10038;42.662;23.278;2023-02-22T02:10:16;6.20;;;3.83;;
19758;SDS011;10038;42.662;23.278;2023-02-22T02:12:44;9.13;;;4.10;;
19758;SDS011;10038;42.662;23.278;2023-02-22T02:15:19;6.93;;;3.40;;
19758;SDS011;10038;42.662;23.278;2023-02-22T02:17:46;7.20;;;3.83;;
19758;SDS011;10038;42.662;23.278;2023-02-22T02:20:16;6.23;;;3.40;;
19758;SDS011;10038;42.662;23.278;2023-02-22T02:22:46;6.13;;;4.07;;
19758;SDS011;10038;42.662;23.278;2023-02-22T02:30:50;7.37;;;5.30;;
19758;SDS011;10038;42.662;23.278;2023-02-22T02:33:22;7.00;;;5.03;;
19758;SDS011;10038;42.662;23.278;2023-02-22T02:35:53;3.90;;;2.90;;
19758;SDS011;10038;42.662;23.278;2023-02-22T02:38:26;6.50;;;4.40;;
19758;SDS011;10038;42.662;23.278;2023-02-22T02:41:02;9.17;;;5.57;;
19758;SDS011;10038;42.662;23.278;2023-02-22T02:43:31;4.57;;;3.23;;
19758;SDS011;10038;42.662;23.278;2023-02-22T02:46:00;4.73;;;3.40;;
19758;SDS011;10038;42.662;23.278;2023-02-22T02:48:29;6.00;;;3.50;;
19758;SDS011;10038;42.662;23.278;2023-02-22T02:50:57;9.20;;;4.50;;
19758;SDS011;10038;42.662;23.278;2023-02-22T02:53:26;6.23;;;3.13;;
19758;SDS011;10038;42.662;23.278;2023-02-22T02:55:53;9.47;;;4.63;;
19758;SDS011;10038;42.662;23.278;2023-02-22T02:58:22;11.43;;;4.40;;
19758;SDS011;10038;42.662;23.278;2023-02-22T03:00:49;5.47;;;3.17;;
19758;SDS011;10038;42.662;23.278;2023-02-22T03:03:23;6.43;;;4.00;;
19758;SDS011;10038;42.662;23.278;2023-02-22T03:05:59;4.37;;;2.93;;
19758;SDS011;10038;42.662;23.278;2023-02-22T03:08:31;6.27;;;3.23;;
19758;SDS011;10038;42.662;23.278;2023-02-22T03:11:02;9.70;;;3.77;;
19758;SDS011;10038;42.662;23.278;2023-02-22T03:13:39;9.67;;;4.80;;
19758;SDS011;10038;42.662;23.278;2023-02-22T03:16:11;8.37;;;5.47;;
19758;SDS011;10038;42.662;23.278;2023-02-22T03:18:42;10.80;;;5.80;;
19758;SDS011;10038;42.662;23.278;2023-02-22T03:21:13;10.03;;;4.93;;
19758;SDS011;10038;42.662;23.278;2023-02-22T03:23:43;5.97;;;3.87;;
19758;SDS011;10038;42.662;23.278;2023-02-22T03:26:12;9.10;;;5.00;;
19758;SDS011;10038;42.662;23.278;2023-02-22T03:28:40;9.23;;;5.27;;
19758;SDS011;10038;42.662;23.278;2023-02-22T03:31:08;15.00;;;6.47;;
19758;SDS011;10038;42.662;23.278;2023-02-22T03:33:36;10.80;;;6.57;;
19758;SDS011;10038;42.662;23.278;2023-02-22T03:36:06;13.60;;;6.30;;
19758;SDS011;10038;42.662;23.278;2023-02-22T03:38:36;9.00;;;6.40;;
19758;SDS011;10038;42.662;23.278;2023-02-22T03:41:03;11.77;;;6.70;;
19758;SDS011;10038;42.662;23.278;2023-02-22T03:43:33;16.43;;;8.53;;
19758;SDS011;10038;42.662;23.278;2023-02-22T03:46:01;12.00;;;6.60;;
19758;SDS011;10038;42.662;23.278;2023-02-22T03:48:30;11.10;;;5.60;;
19758;SDS011;10038;42.662;23.278;2023-02-22T03:51:01;7.07;;;4.53;;
19758;SDS011;10038;42.662;23.278;2023-02-22T03:53:29;5.10;;;4.27;;
19758;SDS011;10038;42.662;23.278;2023-02-22T03:55:58;8.00;;;4.67;;
19758;SDS011;10038;42.662;23.278;2023-02-22T03:58:26;5.03;;;3.30;;
19758;SDS011;10038;42.662;23.278;2023-02-22T04:00:54;8.90;;;3.30;;
19758;SDS011;10038;42.662;23.278;2023-02-22T04:03:20;7.47;;;3.40;;
19758;SDS011;10038;42.662;23.278;2023-02-22T04:05:47;4.17;;;3.47;;
19758;SDS011;10038;42.662;23.278;2023-02-22T04:08:14;8.63;;;4.33;;
19758;SDS011;10038;42.662;23.278;2023-02-22T04:10:41;14.27;;;4.50;;
19758;SDS011;10038;42.662;23.278;2023-02-22T04:13:08;5.20;;;3.50;;
19758;SDS011;10038;42.662;23.278;2023-02-22T04:15:35;7.40;;;3.87;;
19758;SDS011;10038;42.662;23.278;2023-02-22T04:18:02;8.83;;;4.70;;
19758;SDS011;10038;42.662;23.278;2023-02-22T04:20:28;7.40;;;4.30;;
19758;SDS011;10038;42.662;23.278;2023-02-22T04:22:55;7.60;;;4.53;;
19758;SDS011;10038;42.662;23.278;2023-02-22T04:25:22;9.10;;;4.63;;
19758;SDS011;10038;42.662;23.278;2023-02-22T04:27:49;7.20;;;4.80;;
19758;SDS011;10038;42.662;23.278;2023-02-22T04:30:17;8.60;;;4.30;;
19758;SDS011;10038;42.662;23.278;2023-02-22T04:32:44;7.50;;;5.13;;
19758;SDS011;10038;42.662;23.278;2023-02-22T04:35:11;8.17;;;4.20;;
19758;SDS011;10038;42.662;23.278;2023-02-22T04:37:38;8.60;;;4.50;;
19758;SDS011;10038;42.662;23.278;2023-02-22T04:40:04;9.63;;;3.53;;
19758;SDS011;10038;42.662;23.278;2023-02-22T04:42:32;10.13;;;3.47;;
19758;SDS011;10038;42.662;23.278;2023-02-22T04:44:58;3.50;;;2.63;;
19758;SDS011;10038;42.662;23.278;2023-02-22T04:47:27;4.90;;;4.20;;
19758;SDS011;10038;42.662;23.278;2023-02-22T04:49:53;15.20;;;4.50;;
19758;SDS011;10038;42.662;23.278;2023-02-22T04:52:20;5.90;;;4.00;;
19758;SDS011;10038;42.662;23.278;2023-02-22T04:54:46;10.20;;;4.77;;
19758;SDS011;10038;42.662;23.278;2023-02-22T04:57:13;6.50;;;4.57;;
19758;SDS011;10038;42.662;23.278;2023-02-22T04:59:39;6.90;;;4.83;;
19758;SDS011;10038;42.662;23.278;2023-02-22T05:02:06;9.00;;;4.17;;
19758;SDS011;10038;42.662;23.278;2023-02-22T05:04:35;9.53;;;4.33;;
19758;SDS011;10038;42.662;23.278;2023-02-22T05:07:02;7.33;;;4.30;;
19758;SDS011;10038;42.662;23.278;2023-02-22T05:09:29;6.43;;;3.80;;
19758;SDS011;10038;42.662;23.278;2023-02-22T05:11:55;6.27;;;4.00;;
19758;SDS011;10038;42.662;23.278;2023-02-22T05:14:22;8.27;;;5.00;;
19758;SDS011;10038;42.662;23.278;2023-02-22T05:16:50;8.70;;;4.83;;
19758;SDS011;10038;42.662;23.278;2023-02-22T05:19:17;15.43;;;8.93;;
19758;SDS011;10038;42.662;23.278;2023-02-22T05:21:45;8.90;;;6.73;;
19758;SDS011;10038;42.662;23.278;2023-02-22T05:24:11;11.27;;;6.70;;
19758;SDS011;10038;42.662;23.278;2023-02-22T05:26:38;10.23;;;6.37;;
19758;SDS011;10038;42.662;23.278;2023-02-22T05:29:04;18.50;;;7.57;;
19758;SDS011;10038;42.662;23.278;2023-02-22T05:31:31;17.43;;;8.17;;
19758;SDS011;10038;42.662;23.278;2023-02-22T05:33:57;27.17;;;12.50;;
19758;SDS011;10038;42.662;23.278;2023-02-22T05:36:24;27.93;;;14.70;;
19758;SDS011;10038;42.662;23.278;2023-02-22T05:38:53;20.90;;;12.40;;
19758;SDS011;10038;42.662;23.278;2023-02-22T05:41:20;26.43;;;13.10;;
19758;SDS011;10038;42.662;23.278;2023-02-22T05:43:46;32.40;;;17.20;;
19758;SDS011;10038;42.662;23.278;2023-02-22T05:46:13;32.10;;;13.43;;
19758;SDS011;10038;42.662;23.278;2023-02-22T05:48:39;25.80;;;9.63;;
19758;SDS011;10038;42.662;23.278;2023-02-22T05:51:06;19.23;;;8.57;;
19758;SDS011;10038;42.662;23.278;2023-02-22T05:53:33;27.83;;;9.30;;
19758;SDS011;10038;42.662;23.278;2023-02-22T05:56:02;15.90;;;8.83;;
19758;SDS011;10038;42.662;23.278;2023-02-22T05:58:28;17.97;;;9.43;;
19758;SDS011;10038;42.662;23.278;2023-02-22T06:00:54;20.07;;;10.80;;
19758;SDS011;10038;42.662;23.278;2023-02-22T06:03:21;19.00;;;10.93;;
19758;SDS011;10038;42.662;23.278;2023-02-22T06:05:48;20.87;;;10.27;;
19758;SDS011;10038;42.662;23.278;2023-02-22T06:08:14;22.03;;;10.30;;
19758;SDS011;10038;42.662;23.278;2023-02-22T06:10:42;19.83;;;12.90;;
19758;SDS011;10038;42.662;23.278;2023-02-22T06:13:10;17.20;;;10.63;;
19758;SDS011;10038;42.662;23.278;2023-02-22T06:15:36;19.90;;;10.73;;
19758;SDS011;10038;42.662;23.278;2023-02-22T06:18:03;25.90;;;11.17;;
19758;SDS011;10038;42.662;23.278;2023-02-22T06:20:29;18.90;;;10.43;;
19758;SDS011;10038;42.662;23.278;2023-02-22T06:22:57;21.10;;;10.33;;
19758;SDS011;10038;42.662;23.278;2023-02-22T06:25:24;16.27;;;10.20;;
19758;SDS011;10038;42.662;23.278;2023-02-22T06:27:51;21.80;;;11.30;;
19758;SDS011;10038;42.662;23.278;2023-02-22T06:30:20;18.00;;;9.60;;
19758;SDS011;10038;42.662;23.278;2023-02-22T06:32:47;24.43;;;11.00;;
19758;SDS011;10038;42.662;23.278;2023-02-22T06:35:13;22.63;;;10.17;;
19758;SDS011;10038;42.662;23.278;2023-02-22T06:37:40;26.20;;;11.90;;
19758;SDS011;10038;42.662;23.278;2023-02-22T06:40:06;18.27;;;12.50;;
19758;SDS011;10038;42.662;23.278;2023-02-22T06:42:33;20.40;;;11.73;;
19758;SDS011;10038;42.662;23.278;2023-02-22T06:45:00;21.40;;;11.47;;
19758;SDS011;10038;42.662;23.278;2023-02-22T06:47:28;26.77;;;10.60;;
19758;SDS011;10038;42.662;23.278;2023-02-22T06:49:54;20.47;;;12.00;;
19758;SDS011;10038;42.662;23.278;2023-02-22T06:52:21;21.40;;;13.20;;
19758;SDS011;10038;42.662;23.278;2023-02-22T06:54:48;24.10;;;13.80;;
19758;SDS011;10038;42.662;23.278;2023-02-22T06:57:14;21.50;;;13.30;;
19758;SDS011;10038;42.662;23.278;2023-02-22T06:59:41;21.57;;;13.80;;
19758;SDS011;10038;42.662;23.278;2023-02-22T07:02:08;23.53;;;13.80;;
19758;SDS011;10038;42.662;23.278;2023-02-22T07:04:36;25.83;;;14.57;;
19758;SDS011;10038;42.662;23.278;2023-02-22T07:07:02;22.43;;;12.07;;
19758;SDS011;10038;42.662;23.278;2023-02-22T07:09:29;23.97;;;13.00;;
19758;SDS011;10038;42.662;23.278;2023-02-22T07:11:55;31.50;;;14.40;;
19758;SDS011;10038;42.662;23.278;2023-02-22T07:14:22;22.40;;;13.67;;
19758;SDS011;10038;42.662;23.278;2023-02-22T07:16:49;24.03;;;12.40;;
19758;SDS011;10038;42.662;23.278;2023-02-22T07:19:15;20.87;;;12.00;;
19758;SDS011;10038;42.662;23.278;2023-02-22T07:21:43;21.57;;;12.43;;
19758;SDS011;10038;42.662;23.278;2023-02-22T07:24:12;26.23;;;13.77;;
19758;SDS011;10038;42.662;23.278;2023-02-22T07:26:38;19.77;;;12.97;;
19758;SDS011;10038;42.662;23.278;2023-02-22T07:29:05;17.23;;;12.50;;
19758;SDS011;10038;42.662;23.278;2023-02-22T07:31:33;17.70;;;11.50;;
19758;SDS011;10038;42.662;23.278;2023-02-22T07:34:00;16.00;;;11.67;;
19758;SDS011;10038;42.662;23.278;2023-02-22T07:36:26;19.63;;;10.93;;
19758;SDS011;10038;42.662;23.278;2023-02-22T07:38:54;14.63;;;10.23;;
19758;SDS011;10038;42.662;23.278;2023-02-22T07:41:20;15.77;;;9.63;;
19758;SDS011;10038;42.662;23.278;2023-02-22T07:43:47;19.77;;;10.37;;
19758;SDS011;10038;42.662;23.278;2023-02-22T07:46:14;17.70;;;10.40;;
19758;SDS011;10038;42.662;23.278;2023-02-22T07:48:40;17.37;;;10.27;;
19758;SDS011;10038;42.662;23.278;2023-02-22T07:51:07;19.67;;;10.07;;
19758;SDS011;10038;42.662;23.278;2023-02-22T07:53:34;17.87;;;11.00;;
19758;SDS011;10038;42.662;23.278;2023-02-22T07:56:02;12.53;;;9.20;;
19758;SDS011;10038;42.662;23.278;2023-02-22T07:58:30;19.90;;;10.77;;
19758;SDS011;10038;42.662;23.278;2023-02-22T08:00:56;15.20;;;10.10;;
19758;SDS011;10038;42.662;23.278;2023-02-22T08:03:23;15.47;;;11.23;;
19758;SDS011;10038;42.662;23.278;2023-02-22T08:05:51;17.83;;;10.00;;
19758;SDS011;10038;42.662;23.278;2023-02-22T08:08:18;13.83;;;9.87;;
19758;SDS011;10038;42.662;23.278;2023-02-22T08:10:45;17.37;;;9.47;;
19758;SDS011;10038;42.662;23.278;2023-02-22T08:13:13;14.97;;;10.37;;
19758;SDS011;10038;42.662;23.278;2023-02-22T08:15:40;16.90;;;10.33;;
19758;SDS011;10038;42.662;23.278;2023-02-22T08:18:08;14.63;;;10.03;;
19758;SDS011;10038;42.662;23.278;2023-02-22T08:20:35;14.93;;;10.70;;
19758;SDS011;10038;42.662;23.278;2023-02-22T08:23:02;13.30;;;9.20;;
19758;SDS011;10038;42.662;23.278;2023-02-22T08:25:29;15.83;;;10.23;;
19758;SDS011;10038;42.662;23.278;2023-02-22T08:27:56;18.83;;;10.80;;
19758;SDS011;10038;42.662;23.278;2023-02-22T08:30:26;10.70;;;8.23;;
19758;SDS011;10038;42.662;23.278;2023-02-22T08:32:54;11.80;;;8.83;;
19758;SDS011;10038;42.662;23.278;2023-02-22T08:35:20;12.70;;;9.47;;
19758;SDS011;10038;42.662;23.278;2023-02-22T08:37:48;14.30;;;10.67;;
19758;SDS011;10038;42.662;23.278;2023-02-22T08:40:15;12.60;;;10.07;;
19758;SDS011;10038;42.662;23.278;2023-02-22T08:42:42;14.53;;;10.77;;
19758;SDS011;10038;42.662;23.278;2023-02-22T08:45:09;15.57;;;11.00;;
19758;SDS011;10038;42.662;23.278;2023-02-22T08:47:37;14.50;;;11.10;;
19758;SDS011;10038;42.662;23.278;2023-02-22T08:50:04;16.47;;;12.03;;
19758;SDS011;10038;42.662;23.278;2023-02-22T08:52:31;14.90;;;9.90;;
19758;SDS011;10038;42.662;23.278;2023-02-22T08:54:57;12.27;;;9.33;;
19758;SDS011;10038;42.662;23.278;2023-02-22T08:57:24;10.43;;;9.33;;
19758;SDS011;10038;42.662;23.278;2023-02-22T08:59:50;15.70;;;9.90;;
19758;SDS011;10038;42.662;23.278;2023-02-22T09:02:19;13.43;;;9.47;;
19758;SDS011;10038;42.662;23.278;2023-02-22T09:04:47;14.53;;;8.20;;
19758;SDS011;10038;42.662;23.278;2023-02-22T09:07:14;13.17;;;8.83;;
19758;SDS011;10038;42.662;23.278;2023-02-22T09:09:41;10.23;;;9.00;;
19758;SDS011;10038;42.662;23.278;2023-02-22T09:12:07;9.97;;;7.20;;
19758;SDS011;10038;42.662;23.278;2023-02-22T09:14:34;7.80;;;5.30;;
19758;SDS011;10038;42.662;23.278;2023-02-22T09:17:00;5.90;;;4.60;;
19758;SDS011;10038;42.662;23.278;2023-02-22T09:19:27;8.50;;;5.20;;
19758;SDS011;10038;42.662;23.278;2023-02-22T09:21:55;8.07;;;5.07;;
19758;SDS011;10038;42.662;23.278;2023-02-22T09:24:22;6.47;;;4.60;;
19758;SDS011;10038;42.662;23.278;2023-02-22T09:26:49;4.87;;;3.60;;
19758;SDS011;10038;42.662;23.278;2023-02-22T09:29:18;7.73;;;4.33;;
19758;SDS011;10038;42.662;23.278;2023-02-22T09:31:47;6.40;;;3.93;;
19758;SDS011;10038;42.662;23.278;2023-02-22T09:34:15;6.30;;;3.70;;
19758;SDS011;10038;42.662;23.278;2023-02-22T09:36:41;4.27;;;3.67;;
19758;SDS011;10038;42.662;23.278;2023-02-22T09:39:12;5.10;;;3.60;;
19758;SDS011;10038;42.662;23.278;2023-02-22T09:41:41;4.10;;;2.60;;
19758;SDS011;10038;42.662;23.278;2023-02-22T09:44:14;4.93;;;2.70;;
19758;SDS011;10038;42.662;23.278;2023-02-22T09:46:42;4.90;;;2.90;;
19758;SDS011;10038;42.662;23.278;2023-02-22T09:49:15;6.47;;;4.50;;
19758;SDS011;10038;42.662;23.278;2023-02-22T09:51:44;3.80;;;3.10;;
19758;SDS011;10038;42.662;23.278;2023-02-22T09:54:17;4.00;;;2.87;;
19758;SDS011;10038;42.662;23.278;2023-02-22T09:56:44;4.83;;;3.40;;
19758;SDS011;10038;42.662;23.278;2023-02-22T09:59:12;3.80;;;3.23;;
19758;SDS011;10038;42.662;23.278;2023-02-22T10:01:43;3.00;;;2.63;;
19758;SDS011;10038;42.662;23.278;2023-02-22T10:04:14;4.73;;;3.23;;
19758;SDS011;10038;42.662;23.278;2023-02-22T10:06:48;5.20;;;3.30;;
19758;SDS011;10038;42.662;23.278;2023-02-22T10:09:19;5.33;;;3.40;;
19758;SDS011;10038;42.662;23.278;2023-02-22T10:11:48;4.20;;;3.80;;
19758;SDS011;10038;42.662;23.278;2023-02-22T10:14:33;7.00;;;3.77;;
19758;SDS011;10038;42.662;23.278;2023-02-22T10:17:07;3.17;;;2.80;;
19758;SDS011;10038;42.662;23.278;2023-02-22T10:19:37;5.70;;;3.73;;
19758;SDS011;10038;42.662;23.278;2023-02-22T10:22:19;4.60;;;3.37;;
19758;SDS011;10038;42.662;23.278;2023-02-22T10:24:52;9.33;;;3.20;;
19758;SDS011;10038;42.662;23.278;2023-02-22T10:27:21;6.87;;;3.13;;
19758;SDS011;10038;42.662;23.278;2023-02-22T10:29:48;3.17;;;2.87;;
19758;SDS011;10038;42.662;23.278;2023-02-22T10:32:16;3.00;;;2.47;;
19758;SDS011;10038;42.662;23.278;2023-02-22T10:34:45;5.20;;;3.60;;
19758;SDS011;10038;42.662;23.278;2023-02-22T10:37:17;2.43;;;2.23;;
19758;SDS011;10038;42.662;23.278;2023-02-22T10:39:46;3.30;;;2.50;;
19758;SDS011;10038;42.662;23.278;2023-02-22T10:42:15;6.97;;;2.87;;
19758;SDS011;10038;42.662;23.278;2023-02-22T10:44:41;4.47;;;2.93;;
19758;SDS011;10038;42.662;23.278;2023-02-22T10:47:08;4.17;;;2.97;;
19758;SDS011;10038;42.662;23.278;2023-02-22T10:49:36;7.50;;;3.03;;
19758;SDS011;10038;42.662;23.278;2023-02-22T10:52:11;3.40;;;2.93;;
19758;SDS011;10038;42.662;23.278;2023-02-22T10:54:39;4.40;;;3.20;;
19758;SDS011;10038;42.662;23.278;2023-02-22T10:57:06;4.03;;;3.27;;
19758;SDS011;10038;42.662;23.278;2023-02-22T10:59:35;3.37;;;3.07;;
19758;SDS011;10038;42.662;23.278;2023-02-22T11:02:08;2.80;;;2.60;;
19758;SDS011;10038;42.662;23.278;2023-02-22T11:04:44;2.77;;;2.00;;
19758;SDS011;10038;42.662;23.278;2023-02-22T11:07:17;3.00;;;2.70;;
19758;SDS011;10038;42.662;23.278;2023-02-22T11:09:45;2.70;;;2.40;;
19758;SDS011;10038;42.662;23.278;2023-02-22T11:12:16;2.77;;;2.37;;
19758;SDS011;10038;42.662;23.278;2023-02-22T11:14:44;4.10;;;2.80;;
19758;SDS011;10038;42.662;23.278;2023-02-22T11:17:12;2.70;;;2.10;;
19758;SDS011;10038;42.662;23.278;2023-02-22T11:19:44;4.50;;;3.27;;
19758;SDS011;10038;42.662;23.278;2023-02-22T11:22:12;6.00;;;3.67;;
19758;SDS011;10038;42.662;23.278;2023-02-22T11:24:43;5.57;;;2.83;;
19758;SDS011;10038;42.662;23.278;2023-02-22T11:27:10;3.17;;;2.50;;
19758;SDS011;10038;42.662;23.278;2023-02-22T11:29:46;2.80;;;2.50;;
19758;SDS011;10038;42.662;23.278;2023-02-22T11:32:15;2.83;;;2.27;;
19758;SDS011;10038;42.662;23.278;2023-02-22T11:34:45;2.67;;;2.40;;
19758;SDS011;10038;42.662;23.278;2023-02-22T11:37:14;2.83;;;2.17;;
19758;SDS011;10038;42.662;23.278;2023-02-22T11:39:41;2.50;;;2.30;;
19758;SDS011;10038;42.662;23.278;2023-02-22T11:42:19;4.30;;;2.00;;
19758;SDS011;10038;42.662;23.278;2023-02-22T11:44:48;2.90;;;2.47;;
19758;SDS011;10038;42.662;23.278;2023-02-22T11:47:28;2.77;;;2.10;;
19758;SDS011;10038;42.662;23.278;2023-02-22T11:49:54;2.70;;;2.40;;
19758;SDS011;10038;42.662;23.278;2023-02-22T11:52:22;3.00;;;2.00;;
19758;SDS011;10038;42.662;23.278;2023-02-22T11:55:07;3.90;;;2.20;;
19758;SDS011;10038;42.662;23.278;2023-02-22T11:57:47;2.50;;;1.90;;
19758;SDS011;10038;42.662;23.278;2023-02-22T12:00:22;4.03;;;2.67;;
19758;SDS011;10038;42.662;23.278;2023-02-22T12:05:37;2.00;;;1.80;;
19758;SDS011;10038;42.662;23.278;2023-02-22T12:08:10;3.33;;;1.80;;
19758;SDS011;10038;42.662;23.278;2023-02-22T12:10:46;2.30;;;1.97;;
19758;SDS011;10038;42.662;23.278;2023-02-22T12:13:18;2.47;;;1.97;;
19758;SDS011;10038;42.662;23.278;2023-02-22T12:15:49;3.87;;;1.70;;
19758;SDS011;10038;42.662;23.278;2023-02-22T12:18:20;4.10;;;1.57;;
19758;SDS011;10038;42.662;23.278;2023-02-22T12:23:53;5.30;;;2.20;;
19758;SDS011;10038;42.662;23.278;2023-02-22T12:26:23;2.57;;;2.37;;
19758;SDS011;10038;42.662;23.278;2023-02-22T12:28:50;2.27;;;2.07;;
19758;SDS011;10038;42.662;23.278;2023-02-22T12:34:29;5.23;;;2.00;;
19758;SDS011;10038;42.662;23.278;2023-02-22T12:37:00;2.27;;;1.90;;
19758;SDS011;10038;42.662;23.278;2023-02-22T12:39:32;2.40;;;2.20;;
19758;SDS011;10038;42.662;23.278;2023-02-22T12:42:03;3.10;;;2.53;;
19758;SDS011;10038;42.662;23.278;2023-02-22T12:44:31;2.83;;;2.40;;
19758;SDS011;10038;42.662;23.278;2023-02-22T12:46:59;2.90;;;2.43;;
19758;SDS011;10038;42.662;23.278;2023-02-22T12:49:32;2.63;;;2.40;;
19758;SDS011;10038;42.662;23.278;2023-02-22T12:52:02;4.83;;;2.20;;
19758;SDS011;10038;42.662;23.278;2023-02-22T12:54:33;3.90;;;2.33;;
19758;SDS011;10038;42.662;23.278;2023-02-22T12:57:04;3.10;;;2.80;;
19758;SDS011;10038;42.662;23.278;2023-02-22T12:59:34;5.00;;;2.70;;
19758;SDS011;10038;42.662;23.278;2023-02-22T13:02:03;4.20;;;2.87;;
19758;SDS011;10038;42.662;23.278;2023-02-22T13:04:37;3.60;;;3.10;;
19758;SDS011;10038;42.662;23.278;2023-02-22T13:07:08;4.60;;;3.40;;
19758;SDS011;10038;42.662;23.278;2023-02-22T13:09:40;3.07;;;2.77;;
19758;SDS011;10038;42.662;23.278;2023-02-22T13:12:10;3.90;;;3.00;;
19758;SDS011;10038;42.662;23.278;2023-02-22T13:14:43;3.97;;;2.53;;
19758;SDS011;10038;42.662;23.278;2023-02-22T13:17:14;2.50;;;2.00;;
19758;SDS011;10038;42.662;23.278;2023-02-22T13:19:47;2.67;;;2.20;;
19758;SDS011;10038;42.662;23.278;2023-02-22T13:22:17;4.97;;;2.60;;
19758;SDS011;10038;42.662;23.278;2023-02-22T13:24:48;4.53;;;2.20;;
19758;SDS011;10038;42.662;23.278;2023-02-22T13:27:19;3.67;;;2.37;;
19758;SDS011;10038;42.662;23.278;2023-02-22T13:29:47;2.83;;;2.23;;
19758;SDS011;10038;42.662;23.278;2023-02-22T13:32:18;2.77;;;2.40;;
19758;SDS011;10038;42.662;23.278;2023-02-22T13:34:56;2.90;;;2.13;;
19758;SDS011;10038;42.662;23.278;2023-02-22T13:37:34;2.30;;;2.00;;
19758;SDS011;10038;42.662;23.278;2023-02-22T13:40:19;3.80;;;2.63;;
19758;SDS011;10038;42.662;23.278;2023-02-22T13:42:55;3.13;;;2.13;;
19758;SDS011;10038;42.662;23.278;2023-02-22T13:45:40;2.60;;;2.00;;
19758;SDS011;10038;42.662;23.278;2023-02-22T13:51:05;3.83;;;2.73;;
19758;SDS011;10038;42.662;23.278;2023-02-22T13:53:36;3.17;;;2.67;;
19758;SDS011;10038;42.662;23.278;2023-02-22T13:56:07;3.13;;;2.80;;
19758;SDS011;10038;42.662;23.278;2023-02-22T13:58:45;3.10;;;2.73;;
19758;SDS011;10038;42.662;23.278;2023-02-22T14:01:16;5.63;;;2.80;;
19758;SDS011;10038;42.662;23.278;2023-02-22T14:06:44;3.17;;;2.47;;
19758;SDS011;10038;42.662;23.278;2023-02-22T14:09:13;5.03;;;2.60;;
19758;SDS011;10038;42.662;23.278;2023-02-22T14:11:43;3.23;;;2.37;;
19758;SDS011;10038;42.662;23.278;2023-02-22T14:14:11;3.90;;;2.80;;
19758;SDS011;10038;42.662;23.278;2023-02-22T14:16:38;5.30;;;3.00;;
19758;SDS011;10038;42.662;23.278;2023-02-22T14:19:11;3.40;;;3.10;;
19758;SDS011;10038;42.662;23.278;2023-02-22T14:21:53;3.87;;;3.47;;
19758;SDS011;10038;42.662;23.278;2023-02-22T14:24:20;6.23;;;3.10;;
19758;SDS011;10038;42.662;23.278;2023-02-22T14:26:53;5.80;;;2.80;;
19758;SDS011;10038;42.662;23.278;2023-02-22T14:29:20;4.00;;;3.60;;
19758;SDS011;10038;42.662;23.278;2023-02-22T14:34:40;4.70;;;2.80;;
19758;SDS011;10038;42.662;23.278;2023-02-22T14:37:10;5.33;;;2.90;;
19758;SDS011;10038;42.662;23.278;2023-02-22T14:39:38;7.27;;;3.70;;
19758;SDS011;10038;42.662;23.278;2023-02-22T14:42:09;4.50;;;3.77;;
19758;SDS011;10038;42.662;23.278;2023-02-22T14:44:37;4.63;;;3.67;;
19758;SDS011;10038;42.662;23.278;2023-02-22T14:47:06;4.80;;;3.30;;
19758;SDS011;10038;42.662;23.278;2023-02-22T14:49:35;6.57;;;4.10;;
19758;SDS011;10038;42.662;23.278;2023-02-22T14:52:05;4.63;;;3.63;;
19758;SDS011;10038;42.662;23.278;2023-02-22T14:54:37;6.70;;;4.20;;
19758;SDS011;10038;42.662;23.278;2023-02-22T14:57:08;5.43;;;3.37;;
19758;SDS011;10038;42.662;23.278;2023-02-22T14:59:44;7.43;;;5.10;;
19758;SDS011;10038;42.662;23.278;2023-02-22T15:02:12;4.20;;;3.67;;